Yalesville, CT

4:03 AM EDT on August 31, 2014 (GMT -0400)
Choate Rosemary Hall | Change Station
CLOSE
Current Station
Personal Weather Station
Location: Wallingford, CT
Elevation: 158 ft
Nearby Weather Stations

Elev 158 ft 41.46 °N, 72.81 °W | Updated 11 minutes ago

Overcast
Overcast
71.3 °F
Feels Like 71.3 °F
N
0.0
Wind Variable Wind from NNE

Today
High -- | Low -- °F
--% Chance of Precip.
Yesterday
High -- | Low -- °F
Precip. -- in
6:16 AM 7:25 PM
Waxing Crescent, 28% visible
Pressure 30.12 in
Visibility 10.0 miles
Clouds Few 1400 ft
Overcast 3600 ft
Dew Point 68 °F
Humidity 89%
Rainfall 0.00 in
Snow Depth Not available.
UV 0.0 out of 12
Pollen 7.70 out of 12
Ozone Good
PM2.5 Good
Flu Activity Not available.
METAR KMMK 310753Z AUTO 17006KT 10SM FEW014 OVC036 22/19 A3012 RMK AO2 SLP199 T02220189 TSNO

More Conditions Fewer Conditions

Pressure 30.12 in
Visibility 10.0 miles
Clouds Few 1400 ft
Overcast 3600 ft
Dew Point 68 °F
Humidity 89%
Rainfall 0.00 in
Snow Depth Not available.
UV 0.0 out of 12
Pollen 7.70 out of 12
Ozone Good
PM2.5 Good
Flu Activity Not available.
METAR KMMK 310753Z AUTO 17006KT 10SM FEW014 OVC036 22/19 A3012 RMK AO2 SLP199 T02220189 TSNO

More Conditions Fewer Conditions

10-Day Weather Forecast

Almanac

Astronomy

Aug. 31, 2014 Rise Set
Actual Time 6:16 AM EDT 7:25 PM EDT
Civil Twilight 5:47 AM EDT 7:54 PM EDT
Nautical Twilight 5:13 AM EDT 8:28 PM EDT
Astronomical Twilight 4:37 AM EDT 9:03 PM EDT
Moon 12:04 PM EDT 10:34 PM EDT
Length of Visible Light 14h 06m
Length of Day
13h 09m
Tomorrow will be 2m 39s shorter.
Waxing Crescent, 28% of the Moon is Illuminated
Today
Waxing Crescent
Sep 2
First Quarter
Sep 8
Full
Sep 15
Last Quarter
Sep 24
New

Today's Extremes

State Highs State Lows

Community

WunderPhotos

Upload Photos

1,748,816 photos uploaded!

Nearby

Air Quality

  Air Quality AQ Index Pollutant
Yesterday Good
OZONE
Yesterday Good
PM10
Current Good
OZONE
Current Good
PM2.5
Sunday Moderate
PM2.5
Sunday Good
OZONE
Monday Moderate
PM2.5
Monday Good
OZONE
Tuesday Moderate
OZONE
Tuesday Moderate
PM2.5

Snow Depth

Station Depth Elevation
No new snow has been reported.

Earthquake Activity

City Distance Mag. Time & Date
No recent earthquake activity has been reported nearby.
Minimum magnitude displayed is 2.5.

Coastal Water Temperatures

Place Temperature
New London, CT 70.0 °F
Newport, RI 69.1 °F
Quonset Point, RI 71.1 °F
Conimicut Light, RI 72.0 °F
Providence, RI 71.1 °F

Nearby Weather Stations